METAR Data
IDs: Format: Raw Decoded Include TAF

Data at: 1838 UTC 23 Apr 2019

KALM 231835Z AUTO 29003KT 10SM CLR 18/08 A3004 RMK AO2
KALM 231815Z AUTO 21007KT 10SM CLR 18/09 A3005 RMK AO2
KALM 231755Z AUTO 19007KT 10SM CLR 18/08 A3006 RMK AO2
KALM 231735Z AUTO 18008KT 020V030 10SM CLR 17/09 A3006 RMK AO2
KALM 231715Z AUTO 19005KT 10SM CLR 17/08 A3007 RMK AO2
KALM 231655Z AUTO 18007KT 10SM CLR 17/08 A3007 RMK AO2
KALM 231635Z AUTO 21008KT 10SM CLR 17/08 A3007 RMK AO2
KALM 231615Z AUTO 16005KT 10SM CLR 16/08 A3007 RMK AO2
KALM 231555Z AUTO 16005KT 10SM CLR 16/08 A3007 RMK AO2
KALM 231535Z AUTO 15003KT 10SM CLR 15/07 A3007 RMK AO2
KALM 231515Z AUTO 15004KT 10SM CLR 15/08 A3007 RMK AO2
KALM 231455Z AUTO 14005KT 10SM CLR 14/08 A3007 RMK AO2
KALM 231435Z AUTO 14007KT 10SM CLR 13/09 A3007 RMK AO2
KALM 231415Z AUTO 14006KT 10SM CLR 12/10 A3006 RMK AO2
KALM 231355Z AUTO 15005KT 10SM CLR 12/10 A3006 RMK AO2
KALM 231335Z AUTO 15006KT 10SM CLR 10/10 A3006 RMK AO2
KALM 231315Z AUTO 15004KT 10SM CLR 09/09 A3006 RMK AO2
KALM 231255Z AUTO 16003KT 10SM CLR 08/08 A3005 RMK AO2
KALM 231235Z AUTO 12007KT 10SM CLR 07/07 A3004 RMK AO2
KALM 231215Z AUTO 20005KT 10SM FEW090 08/08 A3003 RMK AO2
KALM 231155Z AUTO 18005KT 10SM SCT090 08/08 A3002 RMK AO2
KALM 231135Z AUTO 14007KT 10SM CLR 08/08 A3001 RMK AO2
KALM 231115Z AUTO 15007KT 10SM FEW060 08/08 A3002 RMK AO2
KALM 231055Z AUTO 14007KT 10SM FEW060 09/09 A3002 RMK AO2
KALM 231035Z AUTO 12005KT 10SM CLR 09/08 A3002 RMK AO2
KALM 231015Z AUTO 07004KT 10SM CLR 12/08 A3002 RMK AO2
KALM 230955Z AUTO 34006KT 10SM CLR 12/08 A3001 RMK AO2
KALM 230935Z AUTO 35009KT 10SM CLR 13/07 A3001 RMK AO2
KALM 230915Z AUTO 01010KT 10SM CLR 13/08 A3001 RMK AO2
KALM 230855Z AUTO 01008KT 10SM SCT060 SCT110 12/10 A3003 RMK AO2
KALM 230835Z AUTO 35005KT 10SM FEW060 SCT075 BKN110 11/10 A3004 RMK AO2
KALM 230815Z AUTO 03007KT 10SM BKN075 11/10 A3005 RMK AO2
KALM 230755Z AUTO 01012KT 10SM TS FEW060 BKN075 11/10 A3005 RMK AO2 LTG DSNT N AND NE
KALM 230735Z AUTO 33007KT 10SM CLR 11/10 A3006 RMK AO2 LTG DSNT N AND NW
KALM 230715Z AUTO 03005KT 10SM VCTS FEW022 FEW044 SCT065 10/10 A3005 RMK AO2 LTG DSNT NW-E
KALM 230655Z AUTO 31003KT 9SM -TSRA FEW031 FEW047 BKN065 10/10 A3007 RMK AO2
KALM 230635Z AUTO 27003KT 10SM TS FEW110 10/09 A3006 RMK AO2 LTG DSNT ALQDS
KALM 230615Z AUTO 06004KT 10SM VCTS SCT110 11/09 A3005 RMK AO2 LTG DSNT SW AND NW
KALM 230555Z AUTO 32006KT 10SM CLR 10/09 A3004 RMK AO2
KALM 230535Z AUTO 30007KT 10SM FEW110 11/09 A3003 RMK AO2
KALM 230455Z AUTO 00000KT 10SM CLR 12/09 A3002 RMK AO2
KALM 230435Z AUTO 06005KT 10SM SCT120 12/08 A3001 RMK AO2
KALM 230415Z AUTO 36006KT 10SM OVC120 13/08 A3001 RMK AO2
KALM 230355Z AUTO 34005KT 10SM BKN120 13/08 A3000 RMK AO2
KALM 230335Z AUTO 31008KT 10SM CLR 13/08 A2999 RMK AO2 LTG DSNT E
KALM 230315Z AUTO 00000KT 10SM VCTS CLR 14/06 A2999 RMK AO2 LTG DSNT NE-SE
KALM 230255Z AUTO 07015G30KT 10SM FEW002 FEW023 SCT034 13/08 A2998 RMK AO2 LTG DSNT NE AND E P0010
KALM 230235Z AUTO 05023G29KT 5SM -RA FEW001 BKN022 OVC042 12/10 A3002 RMK AO2 LTG DSNT NE P0009
KALM 230215Z AUTO 07006KT 5SM -RA FEW001 SCT022 BKN033 13/11 A3011 RMK AO2 LTG DSNT E P0004
KALM 230155Z AUTO 08009KT 5SM -RA SCT001 BKN048 OVC060 12/12 A3009 RMK AO2 P0010
KALM 230135Z AUTO 12007KT 7SM -RA FEW001 SCT021 BKN046 12/11 A3010 RMK AO2 LTG DSNT NE AND E P0008
KALM 230115Z AUTO 17003KT 2 1/2SM VCTS -RA FEW022 SCT034 BKN046 13/09 A3009 RMK AO2 LTG DSNT N-SE P0003
KALM 230055Z AUTO 26006KT 4SM -TSRA FEW023 BKN048 OVC065 15/09 A3007 RMK AO2 LTG DSNT NE-SE P0002
KALM 230035Z AUTO 27012G17KT 3SM VCTS -RA FEW029 BKN044 OVC070 16/08 A3003 RMK AO2 LTG DSNT ALQDS
KALM 230015Z AUTO 29022G29KT 2SM VCTS -RA SCT001 BKN043 OVC100 17/08 A2999 RMK AO2 LTG DSNT ALQDS
KALM 222355Z AUTO 27017G37KT 030V040 10SM FEW031 SCT050 BKN100 21/00 A2995 RMK AO2 LTG DSNT S AND W
KALM 222335Z AUTO 24012G20KT 030V030 10SM FEW030 SCT046 BKN075 22/00 A2993 RMK AO2 LTG DSNT N AND SW
KALM 222315Z AUTO 25007G27KT 10SM FEW090 SCT110 23/M02 A2991 RMK AO2
KALM 222255Z AUTO 18009G19KT 10SM FEW120 23/00 A2990 RMK AO2
KALM 222235Z AUTO 15009KT 10SM BKN120 24/00 A2990 RMK AO2
KALM 222215Z AUTO 16012G18KT 10SM BKN110 24/00 A2990 RMK AO2
KALM 222155Z AUTO 21007G25KT 10SM FEW110 27/M03 A2991 RMK AO2
KALM 222135Z AUTO 22013G21KT 10SM CLR 26/M03 A2992 RMK AO2
KALM 222115Z AUTO 19015G19KT 10SM CLR 26/M02 A2994 RMK AO2
KALM 222055Z AUTO 18010G17KT 10SM CLR 25/00 A2995 RMK AO2
KALM 222035Z AUTO 15010G15KT 10SM CLR 24/00 A2996 RMK AO2
KALM 222015Z AUTO 20009KT 10SM CLR 24/M03 A2997 RMK AO2
KALM 221955Z AUTO 19013G23KT 10SM CLR 24/M03 A2998 RMK AO2
KALM 221935Z AUTO 17008G16KT 10SM CLR 24/00 A2998 RMK AO2
KALM 221915Z AUTO 19006KT 10SM CLR 24/M01 A3000 RMK AO2
KALM 221855Z AUTO 19008KT 10SM CLR 24/00 A3001 RMK AO2
KALM 221835Z AUTO 20006KT 10SM CLR 23/M02 A3002 RMK AO2
KALM 221815Z AUTO 21008G17KT 10SM CLR 23/00 A3003 RMK AO2
KALM 221755Z AUTO 19009KT 10SM CLR 23/01 A3004 RMK AO2
KALM 221735Z AUTO 21009G14KT 10SM CLR 22/02 A3004 RMK AO2
KALM 221715Z AUTO 18011G16KT 10SM CLR 21/00 A3005 RMK AO2
KALM 221655Z AUTO 18013KT 10SM CLR 20/00 A3005 RMK AO2
KALM 221635Z AUTO 18012KT 10SM CLR 20/01 A3005 RMK AO2
KALM 221615Z AUTO 18011KT 10SM CLR 19/03 A3004 RMK AO2
KALM 221555Z AUTO 19008KT 10SM CLR 19/02 A3003 RMK AO2
KALM 221535Z AUTO 18008KT 10SM CLR 19/03 A3003 RMK AO2
KALM 221515Z AUTO 17010KT 10SM CLR 17/04 A3003 RMK AO2
KALM 221455Z AUTO 16006KT 10SM CLR 16/05 A3002 RMK AO2
KALM 221435Z AUTO 17005KT 10SM CLR 15/06 A3001 RMK AO2
KALM 221415Z AUTO 17004KT 10SM CLR 15/02 A3002 RMK AO2
KALM 221355Z AUTO 00000KT 10SM CLR 15/00 A3001 RMK AO2
KALM 221335Z AUTO 15003KT 10SM CLR 15/M02 A3000 RMK AO2
KALM 221315Z AUTO 13003KT 10SM CLR 13/M01 A3000 RMK AO2
KALM 221255Z AUTO 00000KT 10SM CLR 15/M02 A2999 RMK AO2
KALM 221235Z AUTO 00000KT 10SM CLR 15/M02 A2999 RMK AO2
KALM 221215Z AUTO 00000KT 10SM CLR 14/M01 A2999 RMK AO2
KALM 221155Z AUTO 11003KT 10SM CLR 14/00 A2998 RMK AO2
KALM 221135Z AUTO 14004KT 10SM CLR 15/00 A2998 RMK AO2
KALM 221115Z AUTO 14005KT 10SM CLR 15/00 A2998 RMK AO2
KALM 221055Z AUTO 16005KT 10SM CLR 17/00 A2998 RMK AO2
KALM 221035Z AUTO 15005KT 10SM CLR 15/00 A2998 RMK AO2
KALM 221015Z AUTO 16007KT 10SM CLR 17/00 A2998 RMK AO2
KALM 220955Z AUTO 17007KT 10SM CLR 16/00 A2998 RMK AO2
KALM 220935Z AUTO 16007KT 10SM CLR 17/00 A2998 RMK AO2
KALM 220915Z AUTO 21005KT 10SM CLR 18/00 A2998 RMK AO2
KALM 220855Z AUTO 19005KT 10SM CLR 16/00 A2998 RMK AO2
KALM 220835Z AUTO 18008KT 10SM CLR 16/00 A2998 RMK AO2
KALM 220815Z AUTO 16004KT 10SM CLR 18/M02 A2998 RMK AO2
KALM 220755Z AUTO 13006KT 10SM CLR 17/00 A2997 RMK AO2
KALM 220735Z AUTO 15007KT 10SM CLR 17/00 A2997 RMK AO2
KALM 220715Z AUTO 14006KT 10SM CLR 18/00 A2997 RMK AO2
KALM 220655Z AUTO 22006KT 10SM CLR 18/M02 A2997 RMK AO2